Time,TemperatureF,DewpointF,PressureIn,WindDirection,WindDirectionDegrees,WindSpeedMPH,WindSpeedGustMPH,Humidity,HourlyPrecipIn,Conditions,Clouds,dailyrainin,SolarRadiationWatts/m^2,SoftwareType,DateUTC
2013-05-14 00:02:00,32.0,20.0,-100.00,South,177,2.0,4.0,62,0.00,,,0.08,2.000000,,2013-05-14 08:02:00,
2013-05-14 00:11:00,32.0,20.0,-100.00,South,177,2.0,4.0,62,0.00,,,0.08,2.000000,,2013-05-14 08:11:00,
2013-05-14 00:21:00,32.0,20.0,-100.00,South,177,2.0,4.0,62,0.00,,,0.08,2.000000,,2013-05-14 08:21:00,
2013-05-14 00:52:00,30.0,22.0,-100.00,SSE,149,2.0,5.0,71,0.00,,,0.07,0.000000,,2013-05-14 08:52:00,
2013-05-14 01:01:00,30.0,22.0,-100.00,SSE,149,2.0,5.0,71,0.00,,,0.07,0.000000,,2013-05-14 09:01:00,
2013-05-14 01:11:00,30.0,22.0,-100.00,SSE,149,2.0,5.0,71,0.00,,,0.07,0.000000,,2013-05-14 09:11:00,
2013-05-14 01:21:00,30.0,22.0,-100.00,SSE,149,2.0,5.0,71,0.00,,,0.07,0.000000,,2013-05-14 09:21:00,
2013-05-14 02:52:00,26.0,22.0,-100.00,SE,135,1.0,4.0,83,-99.99,,,0.03,0.000000,,2013-05-14 10:52:00,
2013-05-14 03:53:00,26.0,22.0,-100.00,South,185,2.0,3.0,85,0.00,,,-99.99,0.000000,,2013-05-14 11:53:00,
2013-05-14 04:02:00,26.0,22.0,-100.00,South,185,2.0,3.0,85,0.00,,,-99.99,0.000000,,2013-05-14 12:02:00,
2013-05-14 04:12:00,26.0,22.0,-100.00,South,185,2.0,3.0,85,0.00,,,-99.99,0.000000,,2013-05-14 12:12:00,
2013-05-14 04:21:00,26.0,22.0,-100.00,South,185,2.0,3.0,85,0.00,,,-99.99,0.000000,,2013-05-14 12:21:00,
2013-05-14 04:52:00,26.0,23.0,-100.00,SE,142,1.0,2.0,87,0.00,,,0.02,0.000000,,2013-05-14 12:52:00,
2013-05-14 05:01:00,26.0,23.0,-100.00,SE,142,1.0,2.0,87,0.00,,,0.02,0.000000,,2013-05-14 13:01:00,
2013-05-14 05:11:00,26.0,23.0,-100.00,SE,142,1.0,2.0,87,0.00,,,0.02,0.000000,,2013-05-14 13:11:00,
2013-05-14 05:22:00,26.0,23.0,-100.00,SE,142,1.0,2.0,87,0.00,,,0.02,0.000000,,2013-05-14 13:22:00,
2013-05-14 05:52:00,25.0,22.0,-100.00,SSW,193,1.0,2.0,90,0.00,,,0.02,2.000000,,2013-05-14 13:52:00,
2013-05-14 06:01:00,25.0,22.0,-100.00,SSW,193,1.0,2.0,90,0.00,,,0.02,2.000000,,2013-05-14 14:01:00,
2013-05-14 06:11:00,25.0,22.0,-100.00,SSW,193,1.0,2.0,90,0.00,,,0.02,2.000000,,2013-05-14 14:11:00,
2013-05-14 06:22:00,25.0,22.0,-100.00,SSW,193,1.0,2.0,90,0.00,,,0.02,2.000000,,2013-05-14 14:22:00,
2013-05-14 06:52:00,27.0,25.0,-100.00,SE,137,1.0,2.0,92,0.00,,,0.01,25.000000,,2013-05-14 14:52:00,
2013-05-14 07:01:00,27.0,25.0,-100.00,SE,137,1.0,2.0,92,0.00,,,0.01,25.000000,,2013-05-14 15:01:00,
2013-05-14 07:11:00,27.0,25.0,-100.00,SE,137,1.0,2.0,92,0.00,,,0.01,25.000000,,2013-05-14 15:11:00,
2013-05-14 07:21:00,27.0,25.0,-100.00,SE,137,1.0,2.0,92,0.00,,,0.01,25.000000,,2013-05-14 15:21:00,
2013-05-14 07:53:00,29.0,27.0,-100.00,ESE,116,0.0,2.0,91,0.00,,,0.00,58.000000,,2013-05-14 15:53:00,
2013-05-14 08:02:00,29.0,27.0,-100.00,ESE,116,0.0,2.0,91,0.00,,,0.00,58.000000,,2013-05-14 16:02:00,
2013-05-14 08:54:00,35.0,26.0,-100.00,ESE,120,2.0,4.0,70,0.00,,,0.00,116.000000,,2013-05-14 16:54:00,
2013-05-14 09:03:00,35.0,26.0,-100.00,ESE,120,2.0,4.0,70,0.00,,,0.00,116.000000,,2013-05-14 17:03:00,
2013-05-14 09:52:00,37.0,17.0,-100.00,NNE,28,3.0,5.0,44,0.00,,,0.00,195.000000,,2013-05-14 17:52:00,
2013-05-14 10:02:00,37.0,17.0,-100.00,NNE,28,3.0,5.0,44,0.00,,,0.00,195.000000,,2013-05-14 18:02:00,
2013-05-14 10:12:00,37.0,17.0,-100.00,NNE,28,3.0,5.0,44,0.00,,,0.00,195.000000,,2013-05-14 18:12:00,
2013-05-14 10:22:00,37.0,17.0,-100.00,NNE,28,3.0,5.0,44,0.00,,,0.00,195.000000,,2013-05-14 18:22:00,
2013-05-14 10:52:00,39.0,17.0,-100.00,South,174,2.0,5.0,41,0.00,,,0.00,297.000000,,2013-05-14 18:52:00,
2013-05-14 11:01:00,39.0,17.0,-100.00,South,174,2.0,5.0,41,0.00,,,0.00,297.000000,,2013-05-14 19:01:00,
2013-05-14 11:11:00,39.0,17.0,-100.00,South,174,2.0,5.0,41,0.00,,,0.00,297.000000,,2013-05-14 19:11:00,
2013-05-14 11:21:00,39.0,17.0,-100.00,South,174,2.0,5.0,41,0.00,,,0.00,297.000000,,2013-05-14 19:21:00,
2013-05-14 11:52:00,41.0,19.0,-100.00,NNE,15,2.0,5.0,41,0.00,,,0.00,291.000000,,2013-05-14 19:52:00,
2013-05-14 12:02:00,41.0,19.0,-100.00,NNE,15,2.0,5.0,41,0.00,,,0.00,291.000000,,2013-05-14 20:02:00,
2013-05-14 12:11:00,41.0,19.0,-100.00,NNE,15,2.0,5.0,41,0.00,,,0.00,291.000000,,2013-05-14 20:11:00,
2013-05-14 12:22:00,41.0,19.0,-100.00,NNE,15,2.0,5.0,41,0.00,,,0.00,291.000000,,2013-05-14 20:22:00,
2013-05-14 12:52:00,42.0,21.0,-100.00,ESE,110,2.0,7.0,42,0.00,,,0.00,260.000000,,2013-05-14 20:52:00,
2013-05-14 13:03:00,42.0,21.0,-100.00,ESE,110,2.0,7.0,42,0.00,,,0.00,260.000000,,2013-05-14 21:03:00,
2013-05-14 13:12:00,42.0,21.0,-100.00,ESE,110,2.0,7.0,42,0.00,,,0.00,260.000000,,2013-05-14 21:12:00,
2013-05-14 13:22:00,42.0,21.0,-100.00,ESE,110,2.0,7.0,42,0.00,,,0.00,260.000000,,2013-05-14 21:22:00,
2013-05-14 13:53:00,43.0,20.0,-100.00,South,177,3.0,7.0,39,0.00,,,0.00,280.000000,,2013-05-14 21:53:00,
2013-05-14 14:03:00,43.0,20.0,-100.00,South,177,3.0,7.0,39,0.00,,,0.00,280.000000,,2013-05-14 22:03:00,
2013-05-14 14:13:00,43.0,20.0,-100.00,South,177,3.0,7.0,39,0.00,,,0.00,280.000000,,2013-05-14 22:13:00,
2013-05-14 14:24:00,43.0,20.0,-100.00,South,177,3.0,7.0,39,0.00,,,0.00,280.000000,,2013-05-14 22:24:00,
2013-05-14 14:54:00,45.0,26.0,-100.00,SSE,158,4.0,10.0,47,0.00,,,0.00,411.000000,,2013-05-14 22:54:00,
2013-05-14 15:03:00,45.0,26.0,-100.00,SSE,158,4.0,10.0,47,0.00,,,0.00,411.000000,,2013-05-14 23:03:00,
2013-05-14 15:12:00,45.0,26.0,-100.00,SSE,158,4.0,10.0,47,0.00,,,0.00,411.000000,,2013-05-14 23:12:00,
2013-05-14 15:21:00,45.0,26.0,-100.00,SSE,158,4.0,10.0,47,0.00,,,0.00,411.000000,,2013-05-14 23:21:00,
2013-05-14 15:52:00,47.0,25.0,-100.00,East,82,4.0,9.0,41,0.00,,,0.00,493.000000,,2013-05-14 23:52:00,
2013-05-14 16:01:00,47.0,25.0,-100.00,East,82,4.0,9.0,41,0.00,,,0.00,493.000000,,2013-05-15 00:01:00,
2013-05-14 16:11:00,47.0,25.0,-100.00,East,82,4.0,9.0,41,0.00,,,0.00,493.000000,,2013-05-15 00:11:00,
2013-05-14 16:21:00,47.0,25.0,-100.00,East,82,4.0,9.0,41,0.00,,,0.00,493.000000,,2013-05-15 00:21:00,
2013-05-14 16:52:00,47.0,23.0,-100.00,East,81,4.0,9.0,39,0.00,,,0.00,464.000000,,2013-05-15 00:52:00,
2013-05-14 17:01:00,47.0,23.0,-100.00,East,81,4.0,9.0,39,0.00,,,0.00,464.000000,,2013-05-15 01:01:00,
2013-05-14 17:11:00,47.0,23.0,-100.00,East,81,4.0,9.0,39,0.00,,,0.00,464.000000,,2013-05-15 01:11:00,
2013-05-14 17:21:00,47.0,23.0,-100.00,East,81,4.0,9.0,39,0.00,,,0.00,464.000000,,2013-05-15 01:21:00,
2013-05-14 17:52:00,46.0,22.0,-100.00,NW,310,4.0,9.0,38,0.00,,,0.00,344.000000,,2013-05-15 01:52:00,
2013-05-14 18:01:00,46.0,22.0,-100.00,NW,310,4.0,9.0,38,0.00,,,0.00,344.000000,,2013-05-15 02:01:00,
2013-05-14 18:11:00,46.0,22.0,-100.00,NW,310,4.0,9.0,38,0.00,,,0.00,344.000000,,2013-05-15 02:11:00,
2013-05-14 18:21:00,46.0,22.0,-100.00,NW,310,4.0,9.0,38,0.00,,,0.00,344.000000,,2013-05-15 02:21:00,
2013-05-14 18:52:00,48.0,26.0,-100.00,NNW,342,4.0,8.0,42,0.00,,,0.00,323.000000,,2013-05-15 02:52:00,
2013-05-14 19:01:00,48.0,26.0,-100.00,NNW,342,4.0,8.0,42,0.00,,,0.00,323.000000,,2013-05-15 03:01:00,
2013-05-14 19:12:00,48.0,26.0,-100.00,NNW,342,4.0,8.0,42,0.00,,,0.00,323.000000,,2013-05-15 03:12:00,
2013-05-14 19:21:00,48.0,26.0,-100.00,NNW,342,4.0,8.0,42,0.00,,,0.00,323.000000,,2013-05-15 03:21:00,
2013-05-14 19:54:00,49.0,24.0,-100.00,ENE,60,5.0,8.0,37,0.00,,,0.00,342.000000,,2013-05-15 03:54:00,
2013-05-14 20:03:00,49.0,24.0,-100.00,ENE,60,5.0,8.0,37,0.00,,,0.00,342.000000,,2013-05-15 04:03:00,
2013-05-14 20:12:00,49.0,24.0,-100.00,ENE,60,5.0,8.0,37,0.00,,,0.00,342.000000,,2013-05-15 04:12:00,
2013-05-14 20:23:00,49.0,24.0,-100.00,ENE,60,5.0,8.0,37,0.00,,,0.00,342.000000,,2013-05-15 04:23:00,
2013-05-14 20:52:00,47.0,22.0,-100.00,NE,51,3.0,10.0,37,0.00,,,0.00,183.000000,,2013-05-15 04:52:00,
2013-05-14 21:02:00,47.0,22.0,-100.00,NE,51,3.0,10.0,37,0.00,,,0.00,183.000000,,2013-05-15 05:02:00,
2013-05-14 21:12:00,47.0,22.0,-100.00,NE,51,3.0,10.0,37,0.00,,,0.00,183.000000,,2013-05-15 05:12:00,
2013-05-14 21:22:00,47.0,22.0,-100.00,NE,51,3.0,10.0,37,0.00,,,0.00,183.000000,,2013-05-15 05:22:00,
2013-05-14 21:52:00,44.0,22.0,-100.00,NW,311,3.0,8.0,42,0.00,,,0.00,126.000000,,2013-05-15 05:52:00,
2013-05-14 22:02:00,44.0,22.0,-100.00,NW,311,3.0,8.0,42,0.00,,,0.00,126.000000,,2013-05-15 06:02:00,
2013-05-14 22:11:00,44.0,22.0,-100.00,NW,311,3.0,8.0,42,0.00,,,0.00,126.000000,,2013-05-15 06:11:00,
2013-05-14 22:21:00,44.0,22.0,-100.00,NW,311,3.0,8.0,42,0.00,,,0.00,126.000000,,2013-05-15 06:21:00,
2013-05-14 22:52:00,40.0,25.0,-100.00,East,91,1.0,4.0,55,0.00,,,0.00,42.000000,,2013-05-15 06:52:00,
2013-05-14 23:01:00,40.0,25.0,-100.00,East,91,1.0,4.0,55,0.00,,,0.00,42.000000,,2013-05-15 07:01:00,
2013-05-14 23:11:00,40.0,25.0,-100.00,East,91,1.0,4.0,55,0.00,,,0.00,42.000000,,2013-05-15 07:11:00,
2013-05-14 23:21:00,40.0,25.0,-100.00,East,91,1.0,4.0,55,0.00,,,0.00,42.000000,,2013-05-15 07:21:00,
2013-05-14 23:52:00,35.0,26.0,-100.00,South,182,2.0,3.0,70,0.00,,,0.00,4.000000,,2013-05-15 07:52:00,